Time;durP1;ratioP1;P1;durP2;ratioP2;P2;SDS_P1;SDS_P2;PMS_P1;PMS_P2;Temp;Humidity;BMP_temperature;BMP_pressure;BME280_temperature;BME280_humidity;BME280_pressure;Samples;Min_cycle;Max_cycle;Signal;HPM_P1;HPM_P2
2022/09/21 00:00:00;;;;;;;7.07;2.15;;;8.70;99.90;;;;;;6231624;28;20046;-83
2022/09/21 00:03:03;;;;;;;7.38;2.03;;;8.60;99.90;;;;;;6235173;28;20057;-83
2022/09/21 00:06:06;;;;;;;3.50;2.20;;;8.60;99.90;;;;;;6234480;28;20053;-83
2022/09/21 00:09:08;;;;;;;5.65;2.40;;;8.60;99.90;;;;;;6235141;28;20057;-83
2022/09/21 00:12:10;;;;;;;9.10;2.60;;;8.50;99.90;;;;;;6234675;28;20053;-82
2022/09/21 00:15:12;;;;;;;6.07;2.08;;;8.50;99.90;;;;;;6234404;28;20061;-83
2022/09/21 00:18:16;;;;;;;6.18;2.08;;;8.40;99.90;;;;;;6233353;28;20121;-83
2022/09/21 00:21:18;;;;;;;7.28;2.28;;;8.40;99.90;;;;;;6234726;28;20057;-84
2022/09/21 00:24:19;;;;;;;3.38;1.88;;;8.40;99.90;;;;;;6236663;28;20507;-83
2022/09/21 00:27:21;;;;;;;4.85;2.10;;;8.40;99.90;;;;;;6235632;28;20050;-84
2022/09/21 00:30:23;;;;;;;4.47;2.17;;;8.30;99.90;;;;;;6233512;28;20046;-83
2022/09/21 00:33:26;;;;;;;3.83;1.95;;;8.30;99.90;;;;;;6233393;28;20054;-83
2022/09/21 00:36:28;;;;;;;5.07;2.30;;;8.30;99.90;;;;;;6233599;28;20065;-83
2022/09/21 00:39:30;;;;;;;6.72;2.45;;;8.20;99.90;;;;;;6232496;28;20575;-82
2022/09/21 00:42:34;;;;;;;4.20;1.52;;;8.20;99.90;;;;;;6233276;28;20049;-83
2022/09/21 00:45:36;;;;;;;5.15;1.75;;;8.20;99.90;;;;;;6234333;28;20053;-83
2022/09/21 00:48:39;;;;;;;11.13;2.20;;;8.20;99.90;;;;;;6231447;28;20050;-82
2022/09/21 00:51:41;;;;;;;4.95;1.98;;;8.20;99.90;;;;;;6233171;28;20054;-82
2022/09/21 00:54:49;;;;;;;3.97;2.25;;;8.20;99.90;;;;;;6231953;28;20053;-83
2022/09/21 00:57:55;;;;;;;5.97;1.97;;;8.10;99.90;;;;;;6231614;28;20045;-82
2022/09/21 01:00:59;;;;;;;7.30;2.00;;;8.10;99.90;;;;;;6232458;28;20315;-84
2022/09/21 01:04:03;;;;;;;7.13;1.70;;;8.10;99.90;;;;;;6232573;28;20048;-83
2022/09/21 01:07:08;;;;;;;9.27;2.00;;;8.10;99.90;;;;;;6235736;28;20042;-82
2022/09/21 01:10:12;;;;;;;4.10;2.05;;;8.00;99.90;;;;;;6233505;28;20050;-82
2022/09/21 01:13:29;;;;;;;6.13;2.33;;;8.00;99.90;;;;;;6223968;28;20415;-82
2022/09/21 01:16:38;;;;;;;4.57;1.92;;;8.00;99.90;;;;;;6233396;28;20053;-82
2022/09/21 01:20:11;;;;;;;4.03;1.75;;;7.90;99.90;;;;;;6233046;28;20466;-83
2022/09/21 01:23:48;;;;;;;6.38;2.20;;;7.90;99.90;;;;;;6215274;28;20116;-83
2022/09/21 01:27:22;;;;;;;4.78;1.83;;;7.90;99.90;;;;;;6233040;28;20045;-82
2022/09/21 01:30:25;;;;;;;6.53;1.83;;;7.80;99.90;;;;;;6220036;28;20050;-83
2022/09/21 01:33:32;;;;;;;4.22;2.40;;;7.70;99.90;;;;;;6232493;28;20058;-82
2022/09/21 01:36:36;;;;;;;3.10;1.60;;;7.70;99.90;;;;;;6233977;28;20062;-82
2022/09/21 01:39:39;;;;;;;5.30;3.00;;;7.70;99.90;;;;;;6231660;28;20049;-82
2022/09/21 01:42:44;;;;;;;3.35;2.00;;;7.70;99.90;;;;;;6232114;28;20049;-82
2022/09/21 01:45:53;;;;;;;3.45;1.75;;;7.70;99.90;;;;;;6232528;28;20042;-82
2022/09/21 01:48:57;;;;;;;5.28;2.03;;;7.60;99.90;;;;;;6240408;28;20603;-82
2022/09/21 01:52:03;;;;;;;4.40;1.52;;;7.60;99.90;;;;;;6230619;28;20046;-82
2022/09/21 01:55:10;;;;;;;2.63;1.80;;;7.50;99.90;;;;;;6233229;28;20057;-82
2022/09/21 01:58:19;;;;;;;4.55;1.67;;;7.50;99.90;;;;;;6231643;28;20061;-82
2022/09/21 02:01:25;;;;;;;6.57;1.98;;;7.50;99.90;;;;;;6231102;28;20057;-82
2022/09/21 02:04:27;;;;;;;6.95;2.15;;;7.50;99.90;;;;;;6231771;28;20054;-82
2022/09/21 02:07:29;;;;;;;3.95;1.65;;;7.40;99.90;;;;;;6232360;28;20045;-82
2022/09/21 02:10:33;;;;;;;8.70;1.98;;;7.30;99.90;;;;;;6232212;28;20050;-82
2022/09/21 02:13:40;;;;;;;4.53;1.95;;;7.30;99.90;;;;;;6231739;28;20118;-82
2022/09/21 02:16:55;;;;;;;7.75;2.30;;;7.30;99.90;;;;;;6233789;28;20050;-82
2022/09/21 02:20:05;;;;;;;7.18;1.80;;;7.30;99.90;;;;;;6231894;28;20060;-82
2022/09/21 02:23:14;;;;;;;8.23;2.40;;;7.30;99.90;;;;;;6230723;28;20046;-82
2022/09/21 02:26:23;;;;;;;8.88;2.22;;;7.30;99.90;;;;;;6230483;28;20076;-82
2022/09/21 02:29:32;;;;;;;6.68;2.35;;;7.30;99.90;;;;;;6230065;28;20045;-82
2022/09/21 02:32:39;;;;;;;4.65;2.03;;;7.30;99.90;;;;;;6231632;28;20057;-82
2022/09/21 02:35:48;;;;;;;8.48;4.05;;;7.20;99.90;;;;;;6231215;28;20523;-81
2022/09/21 02:38:54;;;;;;;10.52;2.42;;;7.20;99.90;;;;;;6230934;28;20053;-84
2022/09/21 02:42:03;;;;;;;7.00;1.70;;;7.20;99.90;;;;;;6228666;28;20105;-82
2022/09/21 02:45:10;;;;;;;8.63;2.50;;;7.10;99.90;;;;;;6230105;28;20061;-80
2022/09/21 02:48:18;;;;;;;4.28;2.13;;;7.10;99.90;;;;;;6231065;28;20050;-82
2022/09/21 02:51:24;;;;;;;6.10;2.00;;;7.00;99.90;;;;;;6230902;28;20042;-81
2022/09/21 02:54:31;;;;;;;8.15;1.83;;;7.00;99.90;;;;;;6231049;28;20067;-82
2022/09/21 02:57:32;;;;;;;5.72;3.03;;;7.00;99.90;;;;;;6232451;28;20057;-82
2022/09/21 03:00:35;;;;;;;4.78;2.40;;;7.00;99.90;;;;;;6231876;28;20050;-81
2022/09/21 03:03:38;;;;;;;3.20;2.08;;;7.00;99.90;;;;;;6232736;28;20048;-82
2022/09/21 03:06:40;;;;;;;3.45;1.85;;;7.00;99.90;;;;;;6231795;28;20056;-81
2022/09/21 03:09:42;;;;;;;3.53;1.90;;;7.00;99.90;;;;;;6230741;28;20096;-82
2022/09/21 03:12:44;;;;;;;5.03;2.63;;;6.90;99.90;;;;;;6231902;28;20050;-82
2022/09/21 03:15:47;;;;;;;3.60;2.15;;;6.90;99.90;;;;;;6229826;28;20050;-81
2022/09/21 03:18:50;;;;;;;3.42;1.92;;;6.90;99.90;;;;;;6226869;28;20096;-81
2022/09/21 03:21:53;;;;;;;5.70;2.17;;;6.90;99.90;;;;;;6227721;28;20053;-82
2022/09/21 03:24:56;;;;;;;10.10;2.30;;;6.80;99.90;;;;;;6227930;28;20141;-82
2022/09/21 03:27:58;;;;;;;5.93;2.35;;;6.80;99.90;;;;;;6225884;28;20124;-81
2022/09/21 03:30:59;;;;;;;7.50;1.90;;;6.80;99.90;;;;;;6227548;28;20079;-82
2022/09/21 03:34:02;;;;;;;4.13;2.08;;;6.80;99.90;;;;;;6230859;28;20053;-83
2022/09/21 03:37:07;;;;;;;6.82;2.00;;;6.80;99.90;;;;;;6236675;28;20049;-82
2022/09/21 03:40:10;;;;;;;7.18;2.28;;;6.80;99.90;;;;;;6236115;28;20053;-82
2022/09/21 03:43:12;;;;;;;2.75;1.83;;;6.80;99.90;;;;;;6234473;28;20125;-84
2022/09/21 03:46:13;;;;;;;5.50;2.25;;;6.70;99.90;;;;;;6234021;28;20049;-85
2022/09/21 03:49:16;;;;;;;4.03;1.65;;;6.70;99.90;;;;;;6233840;28;20499;-82
2022/09/21 03:52:18;;;;;;;3.55;1.67;;;6.70;99.90;;;;;;6234607;28;20054;-82
2022/09/21 03:55:20;;;;;;;5.03;2.15;;;6.70;99.90;;;;;;6233954;28;20053;-82
2022/09/21 03:58:22;;;;;;;9.38;2.05;;;6.60;99.90;;;;;;6233836;28;20065;-81
2022/09/21 04:01:24;;;;;;;3.15;2.00;;;6.60;99.90;;;;;;6233590;28;20496;-81
2022/09/21 04:04:27;;;;;;;3.45;1.88;;;6.60;99.90;;;;;;6235543;28;20049;-83
2022/09/21 04:07:33;;;;;;;3.08;1.55;;;6.60;99.90;;;;;;6233830;28;20060;-83
2022/09/21 04:10:35;;;;;;;3.47;1.98;;;6.60;99.90;;;;;;6237490;28;20069;-82
2022/09/21 04:13:37;;;;;;;4.30;1.70;;;6.60;99.90;;;;;;6236400;28;20046;-82
2022/09/21 04:16:39;;;;;;;7.47;3.13;;;6.50;99.90;;;;;;6235654;28;20042;-83
2022/09/21 04:19:43;;;;;;;5.55;2.25;;;6.50;99.90;;;;;;6234512;28;20053;-82
2022/09/21 04:22:46;;;;;;;2.95;1.67;;;6.50;99.90;;;;;;6234738;28;20205;-83
2022/09/21 04:25:50;;;;;;;9.52;1.85;;;6.50;99.90;;;;;;6234635;28;20049;-82
2022/09/21 04:28:52;;;;;;;7.00;2.35;;;6.50;99.90;;;;;;6234674;28;20068;-83
2022/09/21 04:31:54;;;;;;;9.55;2.30;;;6.50;99.90;;;;;;6234867;28;20134;-83
2022/09/21 04:34:57;;;;;;;5.38;2.83;;;6.50;99.90;;;;;;6234500;28;20049;-83
2022/09/21 04:37:59;;;;;;;6.63;2.95;;;6.50;99.90;;;;;;6234513;28;20042;-81
2022/09/21 04:41:02;;;;;;;5.53;2.97;;;6.50;99.90;;;;;;6237690;28;20053;-82
2022/09/21 04:44:04;;;;;;;10.52;2.85;;;6.40;99.90;;;;;;6237422;28;20128;-81
2022/09/21 04:47:05;;;;;;;4.40;2.40;;;6.40;99.90;;;;;;6234171;28;20042;-81
2022/09/21 04:50:09;;;;;;;5.20;2.92;;;6.40;99.90;;;;;;6234410;28;20042;-81
2022/09/21 04:53:11;;;;;;;8.40;2.45;;;6.50;99.90;;;;;;6236884;28;20049;-81
2022/09/21 04:56:15;;;;;;;7.78;2.67;;;6.50;99.90;;;;;;6236564;28;20064;-81
2022/09/21 04:59:17;;;;;;;4.35;2.70;;;6.50;99.90;;;;;;6232457;28;20061;-81
2022/09/21 05:02:18;;;;;;;10.00;2.70;;;6.40;99.90;;;;;;6231279;28;20530;-80
2022/09/21 05:05:21;;;;;;;6.72;2.30;;;6.40;99.90;;;;;;6231184;28;20511;-81
2022/09/21 05:11:40;;;;;;;6.15;2.10;;;6.30;99.90;;;;;;6232311;28;20446;-80
2022/09/21 05:14:43;;;;;;;8.98;2.60;;;6.30;99.90;;;;;;6233241;28;20042;-82
2022/09/21 05:17:45;;;;;;;8.65;2.50;;;6.40;99.90;;;;;;6233513;28;20034;-81
2022/09/21 05:20:54;;;;;;;4.40;2.28;;;6.40;99.90;;;;;;6236006;28;20054;-81
2022/09/21 05:23:56;;;;;;;12.20;1.83;;;6.40;99.90;;;;;;6233961;28;20519;-82
2022/09/21 05:26:58;;;;;;;10.95;2.55;;;6.40;99.90;;;;;;6234922;28;20046;-83
2022/09/21 05:30:00;;;;;;;6.38;2.28;;;6.40;99.90;;;;;;6234118;28;20042;-82
2022/09/21 05:33:04;;;;;;;5.78;2.50;;;6.40;99.90;;;;;;6231821;28;20050;-81
2022/09/21 05:36:16;;;;;;;7.20;2.58;;;6.40;99.90;;;;;;6231453;28;20073;-81
2022/09/21 05:39:19;;;;;;;4.97;2.90;;;6.50;99.90;;;;;;6230542;28;20046;-81
2022/09/21 05:42:21;;;;;;;5.72;2.10;;;6.50;99.90;;;;;;6232467;28;20054;-81
2022/09/21 05:45:24;;;;;;;3.40;2.35;;;6.60;99.90;;;;;;6231532;28;20050;-81
2022/09/21 05:48:28;;;;;;;4.15;2.10;;;6.70;99.90;;;;;;6230792;28;20385;-80
2022/09/21 05:51:38;;;;;;;9.57;2.47;;;6.90;99.90;;;;;;6230954;28;20050;-81
2022/09/21 05:55:02;;;;;;;3.63;1.98;;;7.00;99.90;;;;;;6231274;28;20046;-81
2022/09/21 05:58:13;;;;;;;4.28;2.13;;;7.10;99.90;;;;;;6230882;28;20053;-81
2022/09/21 06:01:25;;;;;;;3.53;2.28;;;7.20;99.90;;;;;;6232142;28;20054;-81
2022/09/21 06:04:28;;;;;;;7.75;2.75;;;7.30;99.90;;;;;;6230232;28;20053;-81
2022/09/21 06:07:30;;;;;;;8.57;3.13;;;7.40;99.90;;;;;;6230951;28;20049;-81
2022/09/21 06:10:34;;;;;;;5.93;2.53;;;7.60;99.90;;;;;;6230166;28;20419;-80
2022/09/21 06:13:36;;;;;;;8.40;3.50;;;7.70;99.90;;;;;;6233353;28;20069;-81
2022/09/21 06:16:38;;;;;;;6.00;2.90;;;7.90;99.90;;;;;;6231316;28;20049;-80
2022/09/21 06:19:40;;;;;;;10.43;3.03;;;8.10;99.90;;;;;;6229239;28;20045;-81
2022/09/21 06:22:43;;;;;;;8.15;2.70;;;8.20;99.90;;;;;;6230697;28;20057;-81
2022/09/21 06:25:45;;;;;;;8.32;3.03;;;8.40;99.90;;;;;;6228981;28;20500;-80
2022/09/21 06:28:46;;;;;;;7.85;4.55;;;8.60;99.90;;;;;;6230810;28;20046;-80
2022/09/21 06:31:48;;;;;;;7.00;3.13;;;8.80;99.90;;;;;;6229230;28;20046;-81
2022/09/21 06:34:50;;;;;;;8.95;3.40;;;9.00;99.90;;;;;;6230670;28;20057;-81
2022/09/21 06:37:56;;;;;;;6.50;3.40;;;9.10;99.90;;;;;;6230305;28;20065;-81
2022/09/21 06:41:02;;;;;;;9.23;3.97;;;9.30;99.90;;;;;;6230835;28;20062;-81
2022/09/21 06:44:04;;;;;;;8.88;3.20;;;9.50;99.90;;;;;;6229851;28;20049;-81
2022/09/21 06:47:06;;;;;;;7.57;3.20;;;9.70;99.90;;;;;;6229452;28;20046;-80
2022/09/21 06:50:08;;;;;;;10.77;4.07;;;9.90;99.90;;;;;;6229807;28;20056;-81
2022/09/21 06:53:11;;;;;;;5.47;3.45;;;10.10;99.90;;;;;;6233391;28;20050;-82
2022/09/21 06:56:13;;;;;;;8.13;3.35;;;10.40;99.90;;;;;;6232558;28;20068;-82
2022/09/21 06:59:15;;;;;;;8.82;3.42;;;10.80;99.90;;;;;;6231792;28;20049;-81
2022/09/21 07:02:16;;;;;;;11.85;3.70;;;11.10;99.90;;;;;;6230365;28;20045;-82
2022/09/21 07:05:18;;;;;;;9.13;3.53;;;11.60;99.90;;;;;;6230155;28;20494;-82
2022/09/21 07:08:22;;;;;;;4.75;3.35;;;12.00;99.90;;;;;;6205109;28;20047;-81
2022/09/21 07:11:26;;;;;;;5.25;2.53;;;12.50;99.90;;;;;;6158953;28;20083;-81
2022/09/21 07:14:27;;;;;;;5.97;2.30;;;12.90;99.90;;;;;;6228488;28;20045;-82
2022/09/21 07:17:31;;;;;;;3.78;2.22;;;13.70;99.90;;;;;;6229697;28;20065;-81
2022/09/21 07:20:33;;;;;;;7.15;2.92;;;15.00;99.90;;;;;;6228543;28;20049;-82
2022/09/21 07:23:36;;;;;;;3.10;2.10;;;16.70;99.00;;;;;;6229578;28;20504;-81
2022/09/21 07:26:38;;;;;;;4.35;2.63;;;18.80;93.80;;;;;;6226944;28;20066;-81
2022/09/21 07:29:41;;;;;;;4.78;2.38;;;20.60;86.10;;;;;;6217579;28;20054;-82
2022/09/21 07:32:43;;;;;;;19.08;2.35;;;22.20;77.70;;;;;;6228078;28;20050;-79
2022/09/21 07:35:51;;;;;;;4.22;2.10;;;23.40;72.80;;;;;;6230713;28;20053;-80
2022/09/21 07:38:54;;;;;;;;;;;24.50;65.80;;;;;;6229659;28;20248;-80
2022/09/21 07:41:57;;;;;;;5.43;2.40;;;25.00;59.40;;;;;;6232008;28;19921;-80
2022/09/21 07:44:58;;;;;;;9.77;3.50;;;25.00;60.40;;;;;;6230159;28;20069;-80
2022/09/21 07:48:03;;;;;;;6.55;2.30;;;25.30;59.10;;;;;;6228804;28;20381;-80
2022/09/21 07:51:07;;;;;;;6.47;2.30;;;25.50;57.40;;;;;;6227821;28;20455;-80
2022/09/21 07:54:11;;;;;;;3.28;1.52;;;25.00;56.40;;;;;;6226647;28;20046;-80
2022/09/21 08:00:33;;;;;;;2.75;1.80;;;22.70;59.30;;;;;;6231297;28;20050;-78
2022/09/21 08:03:35;;;;;;;6.32;1.75;;;21.60;61.70;;;;;;6234303;28;20053;-81
2022/09/21 08:06:38;;;;;;;5.35;2.08;;;20.80;62.60;;;;;;6226408;28;20106;-80
2022/09/21 08:09:41;;;;;;;7.22;2.08;;;20.10;64.70;;;;;;6226946;28;20512;-81
2022/09/21 08:12:43;;;;;;;5.55;1.90;;;19.70;66.00;;;;;;6226914;28;20057;-81
2022/09/21 08:15:46;;;;;;;5.72;2.08;;;19.40;67.20;;;;;;6227283;28;20565;-80
2022/09/21 08:18:47;;;;;;;4.07;2.13;;;19.20;67.60;;;;;;6225686;28;20056;-82
2022/09/21 08:21:50;;;;;;;9.55;2.20;;;18.80;69.00;;;;;;6227779;28;20133;-80
2022/09/21 08:24:54;;;;;;;3.38;1.77;;;18.70;70.10;;;;;;6230891;28;20187;-81
2022/09/21 08:27:59;;;;;;;15.02;4.72;;;18.50;70.50;;;;;;6228963;28;20427;-81
2022/09/21 08:31:01;;;;;;;6.22;2.30;;;18.40;71.90;;;;;;6229064;28;20049;-81
2022/09/21 08:34:03;;;;;;;5.50;1.90;;;18.90;71.60;;;;;;6230334;28;20080;-81
2022/09/21 08:37:04;;;;;;;7.03;1.75;;;19.50;70.30;;;;;;6232049;28;20050;-81
2022/09/21 08:40:10;;;;;;;4.68;2.05;;;20.30;68.70;;;;;;6230509;28;20045;-80
2022/09/21 08:43:15;;;;;;;8.00;1.98;;;20.30;66.90;;;;;;6230237;28;20046;-80
2022/09/21 08:46:20;;;;;;;3.38;2.40;;;20.10;67.80;;;;;;6231072;28;20530;-80
2022/09/21 08:49:27;;;;;;;5.93;1.95;;;20.30;67.30;;;;;;6230520;28;20046;-81
2022/09/21 08:52:31;;;;;;;10.77;2.38;;;20.20;66.60;;;;;;6232896;28;20466;-81
2022/09/21 08:55:34;;;;;;;5.18;2.50;;;20.10;67.90;;;;;;6231950;28;20042;-81
2022/09/21 08:58:39;;;;;;;7.00;2.40;;;20.50;67.10;;;;;;6230312;28;20046;-80
2022/09/21 09:01:54;;;;;;;8.68;4.85;;;20.50;67.20;;;;;;6229126;28;20052;-81
2022/09/21 09:05:03;;;;;;;5.88;1.90;;;21.00;65.70;;;;;;6230432;28;20053;-80
2022/09/21 09:08:19;;;;;;;6.82;2.00;;;21.50;64.50;;;;;;6229280;28;20053;-80
2022/09/21 09:11:36;;;;;;;4.57;2.33;;;22.00;63.50;;;;;;6228939;28;20050;-81
2022/09/21 09:15:04;;;;;;;4.50;1.95;;;22.80;61.80;;;;;;6228789;28;20038;-80
2022/09/21 09:18:14;;;;;;;4.78;2.10;;;23.20;60.20;;;;;;6204584;28;20045;-80
2022/09/21 09:21:20;;;;;;;4.03;2.10;;;23.40;59.00;;;;;;6205818;28;20053;-81
2022/09/21 09:24:32;;;;;;;5.45;2.47;;;23.50;59.10;;;;;;6220082;28;20060;-80
2022/09/21 09:27:38;;;;;;;5.20;1.95;;;23.90;58.30;;;;;;6230194;28;20050;-81
2022/09/21 09:30:40;;;;;;;4.20;1.60;;;23.90;58.70;;;;;;6220284;28;20049;-82
2022/09/21 09:33:52;;;;;;;4.93;2.00;;;23.90;57.80;;;;;;6228186;28;20389;-80
2022/09/21 09:36:58;;;;;;;5.55;1.73;;;23.30;58.30;;;;;;6231277;28;20072;-80
2022/09/21 09:40:01;;;;;;;5.07;1.65;;;22.40;59.50;;;;;;6230027;28;20046;-80
2022/09/21 09:43:10;;;;;;;3.42;2.05;;;21.40;61.30;;;;;;6229613;28;20045;-80
2022/09/21 09:46:20;;;;;;;7.97;1.73;;;21.00;63.50;;;;;;6231073;28;20046;-80
2022/09/21 09:49:33;;;;;;;8.48;1.80;;;20.90;63.90;;;;;;6229010;28;20050;-80
2022/09/21 09:52:36;;;;;;;2.40;1.10;;;21.00;64.80;;;;;;6229349;28;20060;-81
2022/09/21 09:55:42;;;;;;;4.53;1.50;;;20.80;64.00;;;;;;6231170;28;20049;-80
2022/09/21 09:58:49;;;;;;;2.63;1.00;;;20.50;64.00;;;;;;6232083;28;20523;-80
2022/09/21 10:02:00;;;;;;;3.05;1.27;;;20.20;65.70;;;;;;6233196;28;20500;-81
2022/09/21 10:05:05;;;;;;;6.47;1.20;;;20.30;66.30;;;;;;6234714;28;20068;-81
2022/09/21 10:08:28;;;;;;;5.15;1.50;;;20.30;66.00;;;;;;6236125;28;20089;-83
2022/09/21 10:11:36;;;;;;;2.25;0.90;;;20.20;66.20;;;;;;6232037;28;20046;-81
2022/09/21 10:14:47;;;;;;;5.47;1.63;;;20.50;65.20;;;;;;6230516;28;20050;-81
2022/09/21 10:17:58;;;;;;;2.85;0.52;;;20.90;63.80;;;;;;6230607;28;20050;-81
2022/09/21 10:21:02;;;;;;;4.18;1.00;;;21.00;61.90;;;;;;6230599;28;20045;-80
2022/09/21 10:24:07;;;;;;;3.00;0.98;;;21.20;61.80;;;;;;6230499;28;20057;-81
2022/09/21 10:27:13;;;;;;;1.92;0.68;;;21.50;63.10;;;;;;6229942;28;20499;-81
2022/09/21 10:33:49;;;;;;;2.45;0.77;;;21.70;60.90;;;;;;6318636;27;20447;-80
2022/09/21 10:36:54;;;;;;;4.28;1.00;;;21.70;60.90;;;;;;6275276;28;20578;-81
2022/09/21 10:39:56;;;;;;;1.30;0.63;;;22.00;58.80;;;;;;6275819;28;20049;-81
2022/09/21 10:43:00;;;;;;;3.15;0.85;;;22.00;58.70;;;;;;6276143;28;20095;-80
2022/09/21 10:46:02;;;;;;;1.20;0.40;;;22.20;59.30;;;;;;6276175;28;20045;-82
2022/09/21 10:49:20;;;;;;;3.42;0.80;;;22.60;57.20;;;;;;6275715;28;20049;-81
2022/09/21 10:52:24;;;;;;;2.40;0.60;;;22.70;56.70;;;;;;6326960;28;20047;-81
2022/09/21 10:55:29;;;;;;;5.65;1.15;;;22.00;56.30;;;;;;6326122;28;20044;-81
2022/09/21 10:58:32;;;;;;;1.83;0.43;;;21.30;58.40;;;;;;6326942;28;20045;-81
2022/09/21 11:01:34;;;;;;;5.07;1.27;;;20.80;59.90;;;;;;6327729;28;20044;-81
2022/09/21 11:04:43;;;;;;;6.25;1.17;;;21.00;59.90;;;;;;6328152;28;20052;-81
2022/09/21 11:07:51;;;;;;;5.13;0.77;;;21.00;59.20;;;;;;6330779;28;20052;-79
2022/09/21 11:11:05;;;;;;;2.92;0.80;;;20.90;59.60;;;;;;6329968;28;20044;-81
2022/09/21 11:14:16;;;;;;;2.95;0.45;;;20.70;59.50;;;;;;6322798;28;20476;-81
2022/09/21 11:17:23;;;;;;;2.67;0.75;;;20.60;59.50;;;;;;6322163;28;20528;-80
2022/09/21 11:20:35;;;;;;;2.55;0.63;;;20.60;60.00;;;;;;6322261;28;20044;-80
2022/09/21 11:23:47;;;;;;;1.52;0.55;;;20.50;59.20;;;;;;6323442;28;20048;-83
2022/09/21 11:26:53;;;;;;;4.05;1.45;;;20.10;60.10;;;;;;6321607;28;20040;-81
2022/09/21 11:30:02;;;;;;;4.60;0.35;;;20.10;61.30;;;;;;6324775;28;20060;-81
2022/09/21 11:33:18;;;;;;;5.13;0.80;;;20.50;60.10;;;;;;6323126;28;20498;-82
2022/09/21 11:36:31;;;;;;;1.65;0.50;;;20.60;59.00;;;;;;6322711;28;20334;-81
2022/09/21 11:39:49;;;;;;;5.75;0.50;;;20.70;58.60;;;;;;6321453;28;20055;-81
2022/09/21 11:43:04;;;;;;;1.33;0.40;;;21.10;58.30;;;;;;6317234;28;20123;-81
2022/09/21 11:46:16;;;;;;;7.45;0.77;;;21.60;58.40;;;;;;6304384;28;20498;-81
2022/09/21 11:49:52;;;;;;;4.07;0.82;;;22.10;56.90;;;;;;6305548;28;20048;-82
2022/09/21 11:53:10;;;;;;;1.70;0.60;;;22.00;57.10;;;;;;6302517;28;20052;-82
2022/09/21 11:56:42;;;;;;;2.42;0.60;;;22.10;56.90;;;;;;6309579;28;20064;-81
2022/09/21 11:59:59;;;;;;;1.58;0.57;;;22.20;56.40;;;;;;6296007;28;20055;-82
2022/09/21 12:03:38;;;;;;;2.67;0.60;;;22.50;56.00;;;;;;6304160;28;20075;-82
2022/09/21 12:06:50;;;;;;;2.15;0.30;;;22.90;54.70;;;;;;6304484;28;20045;-82
2022/09/21 12:10:13;;;;;;;1.10;0.57;;;23.20;54.60;;;;;;6305191;28;20041;-82
2022/09/21 12:13:24;;;;;;;4.28;0.65;;;23.50;54.50;;;;;;6304378;28;20139;-82
2022/09/21 12:16:35;;;;;;;1.77;0.40;;;23.80;53.00;;;;;;6304873;28;20053;-80
2022/09/21 12:19:44;;;;;;;4.35;0.63;;;23.70;53.20;;;;;;6304412;28;20055;-81
2022/09/21 12:22:49;;;;;;;3.30;0.40;;;23.50;52.00;;;;;;6303862;28;20045;-80
2022/09/21 12:25:56;;;;;;;6.70;0.47;;;23.40;52.00;;;;;;6303558;28;20055;-81
2022/09/21 12:29:02;;;;;;;2.30;0.40;;;23.50;52.30;;;;;;6303611;28;20137;-80
2022/09/21 12:32:13;;;;;;;0.63;0.30;;;22.80;51.10;;;;;;6303534;28;20047;-81
2022/09/21 12:35:19;;;;;;;2.38;0.40;;;22.30;52.60;;;;;;6303509;28;20047;-80
2022/09/21 12:38:26;;;;;;;5.25;0.40;;;22.10;53.20;;;;;;6303128;28;20428;-83
2022/09/21 12:41:36;;;;;;;0.63;0.30;;;21.80;53.70;;;;;;6304374;28;20052;-83
2022/09/21 12:44:51;;;;;;;1.25;0.30;;;21.80;53.70;;;;;;6305941;28;20080;-83
2022/09/21 12:47:58;;;;;;;1.65;0.45;;;22.10;53.60;;;;;;6301492;28;20098;-82
2022/09/21 12:51:06;;;;;;;1.88;0.63;;;22.10;52.70;;;;;;6299839;28;20040;-83
2022/09/21 12:54:17;;;;;;;1.40;0.22;;;21.70;53.50;;;;;;6287010;28;20045;-82
2022/09/21 12:57:30;;;;;;;1.95;0.20;;;21.80;53.20;;;;;;6293938;28;20052;-83
2022/09/21 13:00:40;;;;;;;1.08;0.28;;;21.70;53.40;;;;;;6302878;28;20059;-85
2022/09/21 13:03:49;;;;;;;0.63;0.40;;;21.80;52.50;;;;;;6304750;28;20040;-85
2022/09/21 13:07:10;;;;;;;3.65;0.80;;;22.00;52.60;;;;;;6305128;28;20048;-84
2022/09/21 13:10:18;;;;;;;0.75;0.38;;;22.30;53.20;;;;;;6304060;28;20052;-85
2022/09/21 13:13:25;;;;;;;;;;;22.40;52.50;;;;;;6305515;28;20052;-84
2022/09/21 13:16:29;;;;;;;2.55;0.30;;;22.40;52.20;;;;;;6306352;28;19920;-83
2022/09/21 13:19:33;;;;;;;0.95;0.32;;;22.40;52.70;;;;;;6304549;28;20086;-84
2022/09/21 13:22:36;;;;;;;0.88;0.30;;;22.50;52.60;;;;;;6296672;28;20036;-84
2022/09/21 13:25:38;;;;;;;2.92;0.25;;;22.30;51.40;;;;;;6304492;28;20048;-84
2022/09/21 13:28:57;;;;;;;0.68;0.30;;;22.10;52.40;;;;;;6304816;28;20049;-84
2022/09/21 13:32:01;;;;;;;0.52;0.30;;;22.30;53.30;;;;;;6303730;28;20040;-85
2022/09/21 13:35:44;;;;;;;0.52;0.20;;;22.80;51.70;;;;;;6303903;28;20051;-84
2022/09/21 13:39:20;;;;;;;1.83;0.30;;;23.40;49.60;;;;;;6302999;28;20049;-84
2022/09/21 13:42:45;;;;;;;3.17;0.45;;;23.30;49.70;;;;;;6225281;28;20053;-83
2022/09/21 13:45:57;;;;;;;0.25;0.10;;;23.30;49.20;;;;;;6229738;28;20046;-83
2022/09/21 13:49:01;;;;;;;3.15;0.38;;;23.00;50.10;;;;;;6304059;28;20049;-83
2022/09/21 13:52:06;;;;;;;1.92;0.55;;;22.70;50.90;;;;;;6294963;28;20045;-84
2022/09/21 13:55:24;;;;;;;1.50;0.40;;;22.50;52.10;;;;;;6277976;28;20045;-85
2022/09/21 13:58:27;;;;;;;;;;;22.40;51.80;;;;;;6280447;28;20427;-84
2022/09/21 14:01:34;;;;;;;4.32;1.05;;;22.00;52.00;;;;;;6280265;28;19920;-85
2022/09/21 14:04:38;;;;;;;0.57;0.35;;;21.60;52.10;;;;;;6280169;28;20053;-83
2022/09/21 14:07:39;;;;;;;1.13;0.35;;;21.40;53.00;;;;;;6279299;28;20041;-84
2022/09/21 14:10:50;;;;;;;2.83;0.32;;;21.50;52.80;;;;;;6280401;28;20053;-84
2022/09/21 14:14:07;;;;;;;2.10;0.40;;;21.50;52.00;;;;;;6280324;28;20414;-84
2022/09/21 14:17:36;;;;;;;0.90;0.30;;;21.40;51.70;;;;;;6282168;28;20053;-85
2022/09/21 14:20:37;;;;;;;;;;;21.60;52.20;;;;;;6295712;28;20044;-84
2022/09/21 14:23:39;;;;;;;0.88;0.32;;;22.00;53.10;;;;;;6292375;28;19921;-84
2022/09/21 14:26:54;;;;;;;0.63;0.15;;;22.00;52.60;;;;;;6301615;28;20425;-84
2022/09/21 14:29:59;;;;;;;0.50;0.15;;;22.20;52.30;;;;;;6300549;28;20044;-84
2022/09/21 14:33:14;;;;;;;0.75;0.20;;;21.80;51.60;;;;;;6300144;28;20486;-83
2022/09/21 14:36:20;;;;;;;1.02;0.25;;;21.60;52.60;;;;;;6300979;28;20073;-83
2022/09/21 14:39:26;;;;;;;0.77;0.35;;;21.40;53.50;;;;;;6301137;28;20064;-84
2022/09/21 14:42:30;;;;;;;1.75;0.73;;;21.20;53.40;;;;;;6300940;28;20052;-85
2022/09/21 14:45:46;;;;;;;0.70;0.20;;;21.10;53.60;;;;;;6302040;28;20057;-84
2022/09/21 14:49:03;;;;;;;0.63;0.40;;;21.30;53.90;;;;;;6302299;28;20052;-85
2022/09/21 14:52:18;;;;;;;0.80;0.10;;;21.40;54.50;;;;;;6293651;28;20053;-84
2022/09/21 14:55:26;;;;;;;0.77;0.20;;;21.30;54.30;;;;;;6301755;28;20561;-82
2022/09/21 14:58:40;;;;;;;3.30;0.40;;;21.40;53.80;;;;;;6297082;28;20045;-84
2022/09/21 15:01:57;;;;;;;2.10;0.30;;;21.60;53.10;;;;;;6277215;28;20048;-83
2022/09/21 15:05:23;;;;;;;1.35;0.20;;;21.80;52.00;;;;;;6277261;28;20529;-85
2022/09/21 15:12:17;;;;;;;0.70;0.20;;;21.30;51.80;;;;;;6296234;28;20436;-83
2022/09/21 15:15:31;;;;;;;1.63;0.20;;;20.90;53.40;;;;;;6298180;28;20517;-84
2022/09/21 15:18:39;;;;;;;0.45;0.20;;;20.70;54.70;;;;;;6299701;28;20040;-84
2022/09/21 15:21:44;;;;;;;1.20;0.20;;;20.50;54.50;;;;;;6288966;28;20523;-85
2022/09/21 15:24:50;;;;;;;2.22;0.30;;;20.20;54.70;;;;;;6278397;28;20076;-82
2022/09/21 15:27:52;;;;;;;0.43;0.10;;;20.10;55.80;;;;;;6278220;28;20052;-83
2022/09/21 15:30:57;;;;;;;1.67;0.40;;;20.00;55.80;;;;;;6278823;28;20080;-84
2022/09/21 15:33:59;;;;;;;1.27;0.30;;;19.80;55.90;;;;;;6275095;28;20045;-84
2022/09/21 15:37:16;;;;;;;0.60;0.10;;;19.80;56.10;;;;;;6277466;28;20053;-83
2022/09/21 15:40:20;;;;;;;2.10;0.10;;;19.60;55.90;;;;;;6278011;28;20060;-85
2022/09/21 15:43:22;;;;;;;0.80;0.20;;;19.40;55.90;;;;;;6278360;28;20526;-84
2022/09/21 15:46:23;;;;;;;1.10;0.35;;;19.30;56.30;;;;;;6277609;28;20048;-85
2022/09/21 15:49:28;;;;;;;3.33;0.40;;;19.20;56.70;;;;;;6276937;28;20048;-83
2022/09/21 15:52:37;;;;;;;2.13;0.20;;;19.30;56.90;;;;;;6289540;28;20067;-83
2022/09/21 15:55:40;;;;;;;0.82;0.43;;;19.30;56.30;;;;;;6302367;28;20053;-85
2022/09/21 15:58:48;;;;;;;3.05;0.40;;;19.40;55.90;;;;;;6302606;28;20051;-85
2022/09/21 16:01:54;;;;;;;2.60;0.25;;;19.30;56.10;;;;;;6303333;28;20040;-86
2022/09/21 16:04:55;;;;;;;0.95;0.30;;;19.10;55.60;;;;;;6303049;28;20131;-84
2022/09/21 16:08:08;;;;;;;2.95;0.40;;;18.80;56.20;;;;;;6302377;28;20051;-85
2022/09/21 16:11:21;;;;;;;0.70;0.28;;;18.70;57.00;;;;;;6302348;28;20044;-86
2022/09/21 16:18:00;;;;;;;0.25;0.17;;;18.50;57.50;;;;;;6302096;28;20040;-85
2022/09/21 16:21:08;;;;;;;;;;;18.50;58.30;;;;;;6302272;28;20409;-83
2022/09/21 16:24:17;;;;;;;0.93;0.20;;;18.60;58.00;;;;;;6298481;28;19928;-82
2022/09/21 16:27:21;;;;;;;1.45;0.28;;;18.70;58.10;;;;;;6304822;28;20040;-85
2022/09/21 16:30:40;;;;;;;0.25;0.10;;;18.70;57.20;;;;;;6304509;28;20048;-85
2022/09/21 16:33:43;;;;;;;0.73;0.40;;;18.70;56.90;;;;;;6303664;28;20048;-85
2022/09/21 16:36:49;;;;;;;0.93;0.25;;;18.70;57.10;;;;;;6285269;28;20542;-85